sensor_id;sensor_type;location;lat;lon;timestamp;P1;durP1;ratioP1;P2;durP2;ratioP2
19778;SDS011;10049;59.306;18.090;2023-07-13T00:02:28;1.30;;;1.20;;
19778;SDS011;10049;59.306;18.090;2023-07-13T00:04:57;1.27;;;1.13;;
19778;SDS011;10049;59.306;18.090;2023-07-13T00:07:25;1.67;;;1.23;;
19778;SDS011;10049;59.306;18.090;2023-07-13T00:09:53;2.13;;;1.13;;
19778;SDS011;10049;59.306;18.090;2023-07-13T00:12:23;1.80;;;1.30;;
19778;SDS011;10049;59.306;18.090;2023-07-13T00:14:51;1.98;;;1.20;;
19778;SDS011;10049;59.306;18.090;2023-07-13T00:17:19;2.17;;;1.25;;
19778;SDS011;10049;59.306;18.090;2023-07-13T00:19:47;1.20;;;1.10;;
19778;SDS011;10049;59.306;18.090;2023-07-13T00:22:17;2.75;;;1.25;;
19778;SDS011;10049;59.306;18.090;2023-07-13T00:24:45;1.20;;;1.10;;
19778;SDS011;10049;59.306;18.090;2023-07-13T00:27:12;3.90;;;1.25;;
19778;SDS011;10049;59.306;18.090;2023-07-13T00:29:42;1.98;;;1.33;;
19778;SDS011;10049;59.306;18.090;2023-07-13T00:32:10;1.25;;;1.10;;
19778;SDS011;10049;59.306;18.090;2023-07-13T00:34:39;1.60;;;1.23;;
19778;SDS011;10049;59.306;18.090;2023-07-13T00:37:08;1.08;;;1.00;;
19778;SDS011;10049;59.306;18.090;2023-07-13T00:39:36;1.40;;;1.30;;
19778;SDS011;10049;59.306;18.090;2023-07-13T00:42:04;2.08;;;1.20;;
19778;SDS011;10049;59.306;18.090;2023-07-13T00:44:33;1.50;;;1.17;;
19778;SDS011;10049;59.306;18.090;2023-07-13T00:47:02;1.50;;;1.35;;
19778;SDS011;10049;59.306;18.090;2023-07-13T00:49:30;1.90;;;1.27;;
19778;SDS011;10049;59.306;18.090;2023-07-13T00:52:00;1.23;;;1.13;;
19778;SDS011;10049;59.306;18.090;2023-07-13T00:54:29;3.63;;;1.27;;
19778;SDS011;10049;59.306;18.090;2023-07-13T00:56:58;1.65;;;1.27;;
19778;SDS011;10049;59.306;18.090;2023-07-13T00:59:26;1.30;;;1.20;;
19778;SDS011;10049;59.306;18.090;2023-07-13T01:01:54;3.42;;;1.35;;
19778;SDS011;10049;59.306;18.090;2023-07-13T01:04:25;1.00;;;1.00;;
19778;SDS011;10049;59.306;18.090;2023-07-13T01:06:53;1.27;;;1.00;;
19778;SDS011;10049;59.306;18.090;2023-07-13T01:09:20;1.92;;;1.30;;
19778;SDS011;10049;59.306;18.090;2023-07-13T01:11:48;1.85;;;1.10;;
19778;SDS011;10049;59.306;18.090;2023-07-13T01:14:16;3.60;;;1.17;;
19778;SDS011;10049;59.306;18.090;2023-07-13T01:16:44;2.38;;;1.20;;
19778;SDS011;10049;59.306;18.090;2023-07-13T01:19:17;2.08;;;1.17;;
19778;SDS011;10049;59.306;18.090;2023-07-13T01:21:51;1.10;;;1.00;;
19778;SDS011;10049;59.306;18.090;2023-07-13T01:24:19;2.25;;;1.38;;
19778;SDS011;10049;59.306;18.090;2023-07-13T01:26:46;2.08;;;1.05;;
19778;SDS011;10049;59.306;18.090;2023-07-13T01:29:14;1.95;;;1.05;;
19778;SDS011;10049;59.306;18.090;2023-07-13T01:31:42;1.38;;;1.10;;
19778;SDS011;10049;59.306;18.090;2023-07-13T01:34:10;1.17;;;0.98;;
19778;SDS011;10049;59.306;18.090;2023-07-13T01:36:39;1.38;;;1.10;;
19778;SDS011;10049;59.306;18.090;2023-07-13T01:39:08;1.25;;;0.90;;
19778;SDS011;10049;59.306;18.090;2023-07-13T01:41:36;3.45;;;1.30;;
19778;SDS011;10049;59.306;18.090;2023-07-13T01:44:04;2.13;;;1.08;;
19778;SDS011;10049;59.306;18.090;2023-07-13T01:46:33;2.05;;;1.00;;
19778;SDS011;10049;59.306;18.090;2023-07-13T01:49:01;1.40;;;1.00;;
19778;SDS011;10049;59.306;18.090;2023-07-13T01:51:28;2.42;;;1.08;;
19778;SDS011;10049;59.306;18.090;2023-07-13T01:53:56;2.28;;;1.13;;
19778;SDS011;10049;59.306;18.090;2023-07-13T01:56:25;2.25;;;1.25;;
19778;SDS011;10049;59.306;18.090;2023-07-13T01:58:53;1.25;;;1.15;;
19778;SDS011;10049;59.306;18.090;2023-07-13T02:01:21;3.92;;;1.20;;
19778;SDS011;10049;59.306;18.090;2023-07-13T02:03:48;2.38;;;1.23;;
19778;SDS011;10049;59.306;18.090;2023-07-13T02:06:16;3.05;;;1.13;;
19778;SDS011;10049;59.306;18.090;2023-07-13T02:08:44;3.45;;;1.30;;
19778;SDS011;10049;59.306;18.090;2023-07-13T02:11:12;2.75;;;1.10;;
19778;SDS011;10049;59.306;18.090;2023-07-13T02:13:41;1.25;;;1.15;;
19778;SDS011;10049;59.306;18.090;2023-07-13T02:16:09;2.38;;;1.15;;
19778;SDS011;10049;59.306;18.090;2023-07-13T02:18:36;2.67;;;1.10;;
19778;SDS011;10049;59.306;18.090;2023-07-13T02:21:04;2.13;;;1.30;;
19778;SDS011;10049;59.306;18.090;2023-07-13T02:23:31;1.42;;;1.25;;
19778;SDS011;10049;59.306;18.090;2023-07-13T02:26:00;3.10;;;1.40;;
19778;SDS011;10049;59.306;18.090;2023-07-13T02:28:28;2.00;;;1.40;;
19778;SDS011;10049;59.306;18.090;2023-07-13T02:31:03;2.28;;;1.42;;
19778;SDS011;10049;59.306;18.090;2023-07-13T02:33:31;4.75;;;1.25;;
19778;SDS011;10049;59.306;18.090;2023-07-13T02:35:58;3.03;;;1.52;;
19778;SDS011;10049;59.306;18.090;2023-07-13T02:38:26;2.80;;;1.63;;
19778;SDS011;10049;59.306;18.090;2023-07-13T02:40:53;1.42;;;1.30;;
19778;SDS011;10049;59.306;18.090;2023-07-13T02:43:22;2.22;;;1.25;;
19778;SDS011;10049;59.306;18.090;2023-07-13T02:45:50;1.20;;;1.10;;
19778;SDS011;10049;59.306;18.090;2023-07-13T02:48:19;2.83;;;1.40;;
19778;SDS011;10049;59.306;18.090;2023-07-13T02:50:47;1.40;;;1.10;;
19778;SDS011;10049;59.306;18.090;2023-07-13T02:53:15;1.33;;;1.08;;
19778;SDS011;10049;59.306;18.090;2023-07-13T02:55:45;2.95;;;1.13;;
19778;SDS011;10049;59.306;18.090;2023-07-13T02:58:12;3.17;;;1.17;;
19778;SDS011;10049;59.306;18.090;2023-07-13T03:00:41;4.60;;;1.17;;
19778;SDS011;10049;59.306;18.090;2023-07-13T03:03:11;2.38;;;1.30;;
19778;SDS011;10049;59.306;18.090;2023-07-13T03:05:41;1.90;;;1.10;;
19778;SDS011;10049;59.306;18.090;2023-07-13T03:08:09;3.55;;;1.20;;
19778;SDS011;10049;59.306;18.090;2023-07-13T03:10:37;2.97;;;1.25;;
19778;SDS011;10049;59.306;18.090;2023-07-13T03:13:07;1.88;;;1.20;;
19778;SDS011;10049;59.306;18.090;2023-07-13T03:15:35;1.27;;;0.98;;
19778;SDS011;10049;59.306;18.090;2023-07-13T03:18:02;1.88;;;1.27;;
19778;SDS011;10049;59.306;18.090;2023-07-13T03:20:32;3.75;;;1.35;;
19778;SDS011;10049;59.306;18.090;2023-07-13T03:23:02;2.30;;;1.15;;
19778;SDS011;10049;59.306;18.090;2023-07-13T03:25:30;1.77;;;1.30;;
19778;SDS011;10049;59.306;18.090;2023-07-13T03:27:58;1.10;;;1.00;;
19778;SDS011;10049;59.306;18.090;2023-07-13T03:30:26;0.95;;;0.90;;
19778;SDS011;10049;59.306;18.090;2023-07-13T03:32:54;1.73;;;0.90;;
19778;SDS011;10049;59.306;18.090;2023-07-13T03:35:22;1.58;;;1.05;;
19778;SDS011;10049;59.306;18.090;2023-07-13T03:37:50;1.23;;;0.98;;
19778;SDS011;10049;59.306;18.090;2023-07-13T03:40:20;1.98;;;1.10;;
19778;SDS011;10049;59.306;18.090;2023-07-13T03:42:48;2.03;;;1.23;;
19778;SDS011;10049;59.306;18.090;2023-07-13T03:45:16;1.92;;;1.20;;
19778;SDS011;10049;59.306;18.090;2023-07-13T03:47:43;2.50;;;1.50;;
19778;SDS011;10049;59.306;18.090;2023-07-13T03:50:11;4.68;;;1.20;;
19778;SDS011;10049;59.306;18.090;2023-07-13T03:52:41;1.92;;;1.20;;
19778;SDS011;10049;59.306;18.090;2023-07-13T03:55:09;1.98;;;1.10;;
19778;SDS011;10049;59.306;18.090;2023-07-13T03:57:39;1.60;;;1.00;;
19778;SDS011;10049;59.306;18.090;2023-07-13T04:00:07;2.90;;;0.90;;
19778;SDS011;10049;59.306;18.090;2023-07-13T04:02:35;2.90;;;1.10;;
19778;SDS011;10049;59.306;18.090;2023-07-13T04:05:04;1.65;;;1.10;;
19778;SDS011;10049;59.306;18.090;2023-07-13T04:07:32;4.50;;;1.00;;
19778;SDS011;10049;59.306;18.090;2023-07-13T04:09:59;3.17;;;1.10;;
19778;SDS011;10049;59.306;18.090;2023-07-13T04:12:28;3.90;;;1.30;;
19778;SDS011;10049;59.306;18.090;2023-07-13T04:14:58;2.33;;;1.02;;
19778;SDS011;10049;59.306;18.090;2023-07-13T04:17:25;3.53;;;1.13;;
19778;SDS011;10049;59.306;18.090;2023-07-13T04:19:55;2.08;;;1.17;;
19778;SDS011;10049;59.306;18.090;2023-07-13T04:22:24;2.15;;;1.27;;
19778;SDS011;10049;59.306;18.090;2023-07-13T04:24:52;1.40;;;0.88;;
19778;SDS011;10049;59.306;18.090;2023-07-13T04:27:21;1.52;;;1.00;;
19778;SDS011;10049;59.306;18.090;2023-07-13T04:29:49;2.60;;;1.02;;
19778;SDS011;10049;59.306;18.090;2023-07-13T04:32:18;1.77;;;1.17;;
19778;SDS011;10049;59.306;18.090;2023-07-13T04:34:46;1.73;;;1.10;;
19778;SDS011;10049;59.306;18.090;2023-07-13T04:37:19;1.08;;;0.98;;
19778;SDS011;10049;59.306;18.090;2023-07-13T04:39:47;1.90;;;1.20;;
19778;SDS011;10049;59.306;18.090;2023-07-13T04:42:17;1.85;;;1.05;;
19778;SDS011;10049;59.306;18.090;2023-07-13T04:44:48;2.13;;;0.95;;
19778;SDS011;10049;59.306;18.090;2023-07-13T04:47:31;1.40;;;0.80;;
19778;SDS011;10049;59.306;18.090;2023-07-13T04:49:59;2.90;;;0.90;;
19778;SDS011;10049;59.306;18.090;2023-07-13T04:52:27;2.28;;;0.90;;
19778;SDS011;10049;59.306;18.090;2023-07-13T04:54:55;1.38;;;1.00;;
19778;SDS011;10049;59.306;18.090;2023-07-13T04:57:22;2.83;;;0.90;;
19778;SDS011;10049;59.306;18.090;2023-07-13T04:59:49;2.38;;;0.90;;
19778;SDS011;10049;59.306;18.090;2023-07-13T05:02:19;4.07;;;0.82;;
19778;SDS011;10049;59.306;18.090;2023-07-13T05:04:49;0.93;;;0.80;;
19778;SDS011;10049;59.306;18.090;2023-07-13T05:07:16;2.72;;;0.98;;
19778;SDS011;10049;59.306;18.090;2023-07-13T05:09:44;2.78;;;0.70;;
19778;SDS011;10049;59.306;18.090;2023-07-13T05:12:11;3.60;;;0.77;;
19778;SDS011;10049;59.306;18.090;2023-07-13T05:14:39;3.45;;;0.70;;
19778;SDS011;10049;59.306;18.090;2023-07-13T05:17:06;2.13;;;0.80;;
19778;SDS011;10049;59.306;18.090;2023-07-13T05:19:34;2.03;;;0.80;;
19778;SDS011;10049;59.306;18.090;2023-07-13T05:22:05;1.67;;;0.70;;
19778;SDS011;10049;59.306;18.090;2023-07-13T05:24:36;2.15;;;0.82;;
19778;SDS011;10049;59.306;18.090;2023-07-13T05:27:03;1.60;;;0.60;;
19778;SDS011;10049;59.306;18.090;2023-07-13T05:29:31;1.92;;;0.90;;
19778;SDS011;10049;59.306;18.090;2023-07-13T05:31:59;3.92;;;0.80;;
19778;SDS011;10049;59.306;18.090;2023-07-13T05:34:27;1.80;;;0.90;;
19778;SDS011;10049;59.306;18.090;2023-07-13T05:36:54;1.35;;;0.80;;
19778;SDS011;10049;59.306;18.090;2023-07-13T05:39:23;3.30;;;0.80;;
19778;SDS011;10049;59.306;18.090;2023-07-13T05:41:52;1.88;;;0.80;;
19778;SDS011;10049;59.306;18.090;2023-07-13T05:44:20;3.00;;;0.98;;
19778;SDS011;10049;59.306;18.090;2023-07-13T05:46:47;2.88;;;0.60;;
19778;SDS011;10049;59.306;18.090;2023-07-13T05:49:15;2.90;;;0.70;;
19778;SDS011;10049;59.306;18.090;2023-07-13T05:51:42;2.55;;;0.60;;
19778;SDS011;10049;59.306;18.090;2023-07-13T05:54:10;2.55;;;0.77;;
19778;SDS011;10049;59.306;18.090;2023-07-13T05:56:39;1.67;;;0.60;;
19778;SDS011;10049;59.306;18.090;2023-07-13T05:59:06;1.63;;;0.60;;
19778;SDS011;10049;59.306;18.090;2023-07-13T06:01:34;1.80;;;0.52;;
19778;SDS011;10049;59.306;18.090;2023-07-13T06:04:04;2.83;;;0.70;;
19778;SDS011;10049;59.306;18.090;2023-07-13T06:06:32;1.52;;;0.68;;
19778;SDS011;10049;59.306;18.090;2023-07-13T06:09:00;2.63;;;0.70;;
19778;SDS011;10049;59.306;18.090;2023-07-13T06:11:28;2.25;;;0.70;;
19778;SDS011;10049;59.306;18.090;2023-07-13T06:13:58;2.25;;;0.60;;
19778;SDS011;10049;59.306;18.090;2023-07-13T06:16:25;2.38;;;0.50;;
19778;SDS011;10049;59.306;18.090;2023-07-13T06:18:53;2.35;;;0.70;;
19778;SDS011;10049;59.306;18.090;2023-07-13T06:21:21;2.78;;;0.70;;
19778;SDS011;10049;59.306;18.090;2023-07-13T06:23:50;3.40;;;0.70;;
19778;SDS011;10049;59.306;18.090;2023-07-13T06:26:19;0.50;;;0.40;;
19778;SDS011;10049;59.306;18.090;2023-07-13T06:28:47;1.10;;;0.60;;
19778;SDS011;10049;59.306;18.090;2023-07-13T06:31:17;1.98;;;0.80;;
19778;SDS011;10049;59.306;18.090;2023-07-13T06:33:45;1.30;;;0.50;;
19778;SDS011;10049;59.306;18.090;2023-07-13T06:36:14;3.03;;;0.70;;
19778;SDS011;10049;59.306;18.090;2023-07-13T06:38:42;2.92;;;0.70;;
19778;SDS011;10049;59.306;18.090;2023-07-13T06:41:10;1.48;;;0.60;;
19778;SDS011;10049;59.306;18.090;2023-07-13T06:43:38;3.50;;;0.60;;
19778;SDS011;10049;59.306;18.090;2023-07-13T06:46:08;2.03;;;0.70;;
19778;SDS011;10049;59.306;18.090;2023-07-13T06:48:37;1.83;;;0.52;;
19778;SDS011;10049;59.306;18.090;2023-07-13T06:51:05;2.03;;;0.50;;
19778;SDS011;10049;59.306;18.090;2023-07-13T06:53:34;5.68;;;0.60;;
19778;SDS011;10049;59.306;18.090;2023-07-13T06:56:03;3.30;;;0.60;;
19778;SDS011;10049;59.306;18.090;2023-07-13T06:58:33;2.00;;;0.60;;
19778;SDS011;10049;59.306;18.090;2023-07-13T07:01:02;0.88;;;0.50;;
19778;SDS011;10049;59.306;18.090;2023-07-13T07:03:30;2.70;;;0.80;;
19778;SDS011;10049;59.306;18.090;2023-07-13T07:06:03;1.05;;;0.60;;
19778;SDS011;10049;59.306;18.090;2023-07-13T07:08:36;2.03;;;0.63;;
19778;SDS011;10049;59.306;18.090;2023-07-13T07:11:05;2.15;;;0.70;;
19778;SDS011;10049;59.306;18.090;2023-07-13T07:13:34;1.33;;;0.50;;
19778;SDS011;10049;59.306;18.090;2023-07-13T07:16:02;2.03;;;0.70;;
19778;SDS011;10049;59.306;18.090;2023-07-13T07:18:33;2.38;;;0.70;;
19778;SDS011;10049;59.306;18.090;2023-07-13T07:21:04;1.85;;;0.50;;
19778;SDS011;10049;59.306;18.090;2023-07-13T07:23:32;1.25;;;0.50;;
19778;SDS011;10049;59.306;18.090;2023-07-13T07:26:02;3.92;;;0.60;;
19778;SDS011;10049;59.306;18.090;2023-07-13T07:28:29;4.03;;;0.60;;
19778;SDS011;10049;59.306;18.090;2023-07-13T07:30:57;1.85;;;0.55;;
19778;SDS011;10049;59.306;18.090;2023-07-13T07:33:28;2.30;;;0.70;;
19778;SDS011;10049;59.306;18.090;2023-07-13T07:35:58;2.63;;;0.57;;
19778;SDS011;10049;59.306;18.090;2023-07-13T07:38:30;0.68;;;0.50;;
19778;SDS011;10049;59.306;18.090;2023-07-13T07:41:02;1.35;;;0.52;;
19778;SDS011;10049;59.306;18.090;2023-07-13T07:43:30;1.50;;;0.43;;
19778;SDS011;10049;59.306;18.090;2023-07-13T07:45:58;1.30;;;0.50;;
19778;SDS011;10049;59.306;18.090;2023-07-13T07:48:25;0.93;;;0.50;;
19778;SDS011;10049;59.306;18.090;2023-07-13T07:50:53;1.77;;;0.50;;
19778;SDS011;10049;59.306;18.090;2023-07-13T07:53:21;0.98;;;0.40;;
19778;SDS011;10049;59.306;18.090;2023-07-13T07:55:51;3.42;;;0.68;;
19778;SDS011;10049;59.306;18.090;2023-07-13T07:58:19;4.25;;;0.70;;
19778;SDS011;10049;59.306;18.090;2023-07-13T08:00:47;1.05;;;0.40;;
19778;SDS011;10049;59.306;18.090;2023-07-13T08:03:15;1.77;;;0.52;;
19778;SDS011;10049;59.306;18.090;2023-07-13T08:05:42;4.38;;;0.50;;
19778;SDS011;10049;59.306;18.090;2023-07-13T08:08:14;0.70;;;0.40;;
19778;SDS011;10049;59.306;18.090;2023-07-13T08:10:42;1.92;;;0.50;;
19778;SDS011;10049;59.306;18.090;2023-07-13T08:13:13;3.83;;;0.55;;
19778;SDS011;10049;59.306;18.090;2023-07-13T08:15:42;1.42;;;0.40;;
19778;SDS011;10049;59.306;18.090;2023-07-13T08:18:11;1.13;;;0.40;;
19778;SDS011;10049;59.306;18.090;2023-07-13T08:20:40;1.15;;;0.40;;
19778;SDS011;10049;59.306;18.090;2023-07-13T08:23:09;1.27;;;0.50;;
19778;SDS011;10049;59.306;18.090;2023-07-13T08:25:37;2.00;;;0.40;;
19778;SDS011;10049;59.306;18.090;2023-07-13T08:28:05;0.57;;;0.30;;
19778;SDS011;10049;59.306;18.090;2023-07-13T08:30:34;2.85;;;0.50;;
19778;SDS011;10049;59.306;18.090;2023-07-13T08:33:02;1.08;;;0.50;;
19778;SDS011;10049;59.306;18.090;2023-07-13T08:35:30;1.95;;;0.43;;
19778;SDS011;10049;59.306;18.090;2023-07-13T08:37:59;1.27;;;0.50;;
19778;SDS011;10049;59.306;18.090;2023-07-13T08:40:27;0.82;;;0.45;;
19778;SDS011;10049;59.306;18.090;2023-07-13T08:42:55;2.88;;;0.40;;
19778;SDS011;10049;59.306;18.090;2023-07-13T08:45:27;3.65;;;0.60;;
19778;SDS011;10049;59.306;18.090;2023-07-13T08:47:59;1.92;;;0.40;;
19778;SDS011;10049;59.306;18.090;2023-07-13T08:50:30;1.42;;;0.40;;
19778;SDS011;10049;59.306;18.090;2023-07-13T08:52:59;1.00;;;0.40;;
19778;SDS011;10049;59.306;18.090;2023-07-13T08:55:29;1.92;;;0.50;;
19778;SDS011;10049;59.306;18.090;2023-07-13T08:58:00;2.38;;;0.43;;
19778;SDS011;10049;59.306;18.090;2023-07-13T09:00:34;5.30;;;0.50;;
19778;SDS011;10049;59.306;18.090;2023-07-13T09:03:12;1.45;;;0.40;;
19778;SDS011;10049;59.306;18.090;2023-07-13T09:05:45;1.73;;;0.55;;
19778;SDS011;10049;59.306;18.090;2023-07-13T09:08:22;1.67;;;0.40;;
19778;SDS011;10049;59.306;18.090;2023-07-13T09:10:58;1.38;;;0.50;;
19778;SDS011;10049;59.306;18.090;2023-07-13T09:13:29;0.90;;;0.30;;
19778;SDS011;10049;59.306;18.090;2023-07-13T09:15:59;2.05;;;0.57;;
19778;SDS011;10049;59.306;18.090;2023-07-13T09:18:37;1.27;;;0.32;;
19778;SDS011;10049;59.306;18.090;2023-07-13T09:21:07;1.42;;;0.50;;
19778;SDS011;10049;59.306;18.090;2023-07-13T09:23:36;3.05;;;0.40;;
19778;SDS011;10049;59.306;18.090;2023-07-13T09:26:06;2.78;;;0.40;;
19778;SDS011;10049;59.306;18.090;2023-07-13T09:28:39;0.77;;;0.40;;
19778;SDS011;10049;59.306;18.090;2023-07-13T09:31:09;2.97;;;0.60;;
19778;SDS011;10049;59.306;18.090;2023-07-13T09:33:40;0.47;;;0.40;;
19778;SDS011;10049;59.306;18.090;2023-07-13T09:36:16;1.17;;;0.50;;
19778;SDS011;10049;59.306;18.090;2023-07-13T09:38:46;2.22;;;0.60;;
19778;SDS011;10049;59.306;18.090;2023-07-13T09:41:22;0.38;;;0.38;;
19778;SDS011;10049;59.306;18.090;2023-07-13T09:44:10;2.47;;;0.60;;
19778;SDS011;10049;59.306;18.090;2023-07-13T09:46:38;1.70;;;0.50;;
19778;SDS011;10049;59.306;18.090;2023-07-13T09:49:09;1.00;;;0.60;;
19778;SDS011;10049;59.306;18.090;2023-07-13T09:51:38;4.28;;;0.60;;
19778;SDS011;10049;59.306;18.090;2023-07-13T09:54:09;1.60;;;0.60;;
19778;SDS011;10049;59.306;18.090;2023-07-13T09:56:44;1.88;;;0.43;;
19778;SDS011;10049;59.306;18.090;2023-07-13T09:59:18;2.78;;;0.50;;
19778;SDS011;10049;59.306;18.090;2023-07-13T10:01:47;2.75;;;0.68;;
19778;SDS011;10049;59.306;18.090;2023-07-13T10:04:19;3.00;;;0.57;;
19778;SDS011;10049;59.306;18.090;2023-07-13T10:06:47;2.15;;;0.45;;
19778;SDS011;10049;59.306;18.090;2023-07-13T10:09:16;1.63;;;0.50;;
19778;SDS011;10049;59.306;18.090;2023-07-13T10:11:45;2.00;;;0.63;;
19778;SDS011;10049;59.306;18.090;2023-07-13T10:14:13;1.05;;;0.40;;
19778;SDS011;10049;59.306;18.090;2023-07-13T10:16:44;1.63;;;0.40;;
19778;SDS011;10049;59.306;18.090;2023-07-13T10:19:14;0.63;;;0.40;;
19778;SDS011;10049;59.306;18.090;2023-07-13T10:21:50;2.80;;;0.65;;
19778;SDS011;10049;59.306;18.090;2023-07-13T10:24:21;2.83;;;0.50;;
19778;SDS011;10049;59.306;18.090;2023-07-13T10:26:53;2.65;;;0.60;;
19778;SDS011;10049;59.306;18.090;2023-07-13T10:29:24;1.63;;;0.45;;
19778;SDS011;10049;59.306;18.090;2023-07-13T10:31:53;1.73;;;0.70;;
19778;SDS011;10049;59.306;18.090;2023-07-13T10:34:22;1.20;;;0.60;;
19778;SDS011;10049;59.306;18.090;2023-07-13T10:36:52;3.13;;;0.50;;
19778;SDS011;10049;59.306;18.090;2023-07-13T10:39:21;0.95;;;0.50;;
19778;SDS011;10049;59.306;18.090;2023-07-13T10:41:52;1.55;;;0.50;;
19778;SDS011;10049;59.306;18.090;2023-07-13T10:44:21;0.63;;;0.45;;
19778;SDS011;10049;59.306;18.090;2023-07-13T10:46:54;0.93;;;0.40;;
19778;SDS011;10049;59.306;18.090;2023-07-13T10:49:25;1.35;;;0.52;;
19778;SDS011;10049;59.306;18.090;2023-07-13T10:51:55;1.60;;;0.50;;
19778;SDS011;10049;59.306;18.090;2023-07-13T10:54:26;2.05;;;0.68;;
19778;SDS011;10049;59.306;18.090;2023-07-13T10:57:07;1.75;;;0.65;;
19778;SDS011;10049;59.306;18.090;2023-07-13T10:59:37;1.42;;;0.45;;
19778;SDS011;10049;59.306;18.090;2023-07-13T11:02:10;2.38;;;0.50;;
19778;SDS011;10049;59.306;18.090;2023-07-13T11:04:39;3.20;;;0.60;;
19778;SDS011;10049;59.306;18.090;2023-07-13T11:07:16;2.20;;;0.70;;
19778;SDS011;10049;59.306;18.090;2023-07-13T11:09:48;1.73;;;0.60;;
19778;SDS011;10049;59.306;18.090;2023-07-13T11:12:28;1.83;;;0.40;;
19778;SDS011;10049;59.306;18.090;2023-07-13T11:15:09;1.63;;;0.40;;
19778;SDS011;10049;59.306;18.090;2023-07-13T11:17:47;1.33;;;0.75;;
19778;SDS011;10049;59.306;18.090;2023-07-13T11:20:23;2.22;;;0.75;;
19778;SDS011;10049;59.306;18.090;2023-07-13T11:22:53;4.32;;;0.40;;
19778;SDS011;10049;59.306;18.090;2023-07-13T11:25:36;3.20;;;0.47;;
19778;SDS011;10049;59.306;18.090;2023-07-13T11:28:06;1.40;;;0.70;;
19778;SDS011;10049;59.306;18.090;2023-07-13T11:30:36;0.30;;;0.30;;
19778;SDS011;10049;59.306;18.090;2023-07-13T11:33:11;1.92;;;0.50;;
19778;SDS011;10049;59.306;18.090;2023-07-13T11:35:42;1.23;;;0.60;;
19778;SDS011;10049;59.306;18.090;2023-07-13T11:38:16;1.65;;;0.70;;
19778;SDS011;10049;59.306;18.090;2023-07-13T11:40:44;0.93;;;0.50;;
19778;SDS011;10049;59.306;18.090;2023-07-13T11:43:12;2.38;;;0.57;;
19778;SDS011;10049;59.306;18.090;2023-07-13T11:45:41;0.88;;;0.40;;
19778;SDS011;10049;59.306;18.090;2023-07-13T11:48:19;0.50;;;0.40;;
19778;SDS011;10049;59.306;18.090;2023-07-13T11:53:38;1.05;;;0.43;;
19778;SDS011;10049;59.306;18.090;2023-07-13T11:56:07;1.55;;;0.47;;
19778;SDS011;10049;59.306;18.090;2023-07-13T11:58:38;1.50;;;0.50;;
19778;SDS011;10049;59.306;18.090;2023-07-13T12:01:05;2.63;;;0.50;;
19778;SDS011;10049;59.306;18.090;2023-07-13T12:03:34;1.80;;;0.60;;
19778;SDS011;10049;59.306;18.090;2023-07-13T12:06:03;2.08;;;0.50;;
19778;SDS011;10049;59.306;18.090;2023-07-13T12:08:38;3.17;;;0.70;;
19778;SDS011;10049;59.306;18.090;2023-07-13T12:11:11;1.17;;;0.80;;
19778;SDS011;10049;59.306;18.090;2023-07-13T12:13:43;1.02;;;0.50;;
19778;SDS011;10049;59.306;18.090;2023-07-13T12:16:13;1.88;;;0.60;;
19778;SDS011;10049;59.306;18.090;2023-07-13T12:18:43;3.00;;;0.50;;
19778;SDS011;10049;59.306;18.090;2023-07-13T12:21:14;2.97;;;0.60;;
19778;SDS011;10049;59.306;18.090;2023-07-13T12:23:47;3.95;;;0.90;;
19778;SDS011;10049;59.306;18.090;2023-07-13T12:26:17;2.50;;;0.70;;
19778;SDS011;10049;59.306;18.090;2023-07-13T12:28:48;1.25;;;0.47;;
19778;SDS011;10049;59.306;18.090;2023-07-13T12:31:29;0.52;;;0.45;;
19778;SDS011;10049;59.306;18.090;2023-07-13T12:34:00;2.58;;;0.50;;
19778;SDS011;10049;59.306;18.090;2023-07-13T12:36:33;2.92;;;0.63;;
19778;SDS011;10049;59.306;18.090;2023-07-13T12:39:06;1.83;;;0.50;;
19778;SDS011;10049;59.306;18.090;2023-07-13T12:41:49;1.10;;;0.40;;
19778;SDS011;10049;59.306;18.090;2023-07-13T12:44:18;0.45;;;0.35;;
19778;SDS011;10049;59.306;18.090;2023-07-13T12:46:54;3.90;;;0.50;;
19778;SDS011;10049;59.306;18.090;2023-07-13T12:49:24;1.30;;;0.43;;
19778;SDS011;10049;59.306;18.090;2023-07-13T12:51:55;2.30;;;0.50;;
19778;SDS011;10049;59.306;18.090;2023-07-13T12:54:26;1.17;;;0.35;;
19778;SDS011;10049;59.306;18.090;2023-07-13T12:56:55;2.47;;;0.50;;
19778;SDS011;10049;59.306;18.090;2023-07-13T12:59:23;1.35;;;0.40;;
19778;SDS011;10049;59.306;18.090;2023-07-13T13:01:56;1.02;;;0.50;;
19778;SDS011;10049;59.306;18.090;2023-07-13T13:04:24;5.88;;;0.60;;
19778;SDS011;10049;59.306;18.090;2023-07-13T13:07:00;1.52;;;0.40;;
19778;SDS011;10049;59.306;18.090;2023-07-13T13:09:30;1.40;;;0.50;;
19778;SDS011;10049;59.306;18.090;2023-07-13T13:11:59;4.63;;;0.50;;
19778;SDS011;10049;59.306;18.090;2023-07-13T13:14:27;1.38;;;0.60;;
19778;SDS011;10049;59.306;18.090;2023-07-13T13:17:02;3.75;;;0.40;;
19778;SDS011;10049;59.306;18.090;2023-07-13T13:19:29;8.57;;;0.60;;
19778;SDS011;10049;59.306;18.090;2023-07-13T13:21:59;2.95;;;0.50;;
19778;SDS011;10049;59.306;18.090;2023-07-13T13:24:28;1.95;;;0.70;;
19778;SDS011;10049;59.306;18.090;2023-07-13T13:26:59;2.05;;;0.55;;
19778;SDS011;10049;59.306;18.090;2023-07-13T13:29:31;0.60;;;0.32;;
19778;SDS011;10049;59.306;18.090;2023-07-13T13:32:01;0.98;;;0.40;;
19778;SDS011;10049;59.306;18.090;2023-07-13T13:34:34;3.63;;;0.45;;
19778;SDS011;10049;59.306;18.090;2023-07-13T13:37:04;1.42;;;0.50;;
19778;SDS011;10049;59.306;18.090;2023-07-13T13:39:34;1.52;;;0.52;;
19778;SDS011;10049;59.306;18.090;2023-07-13T13:42:08;1.95;;;0.47;;
19778;SDS011;10049;59.306;18.090;2023-07-13T13:44:39;1.58;;;0.50;;
19778;SDS011;10049;59.306;18.090;2023-07-13T13:47:15;0.63;;;0.45;;
19778;SDS011;10049;59.306;18.090;2023-07-13T13:49:48;0.65;;;0.40;;
19778;SDS011;10049;59.306;18.090;2023-07-13T13:52:16;0.90;;;0.30;;
19778;SDS011;10049;59.306;18.090;2023-07-13T13:54:49;0.88;;;0.35;;
19778;SDS011;10049;59.306;18.090;2023-07-13T13:57:24;0.43;;;0.43;;
19778;SDS011;10049;59.306;18.090;2023-07-13T13:59:52;3.00;;;0.40;;
19778;SDS011;10049;59.306;18.090;2023-07-13T14:02:26;0.85;;;0.47;;
19778;SDS011;10049;59.306;18.090;2023-07-13T14:04:58;3.85;;;0.50;;
19778;SDS011;10049;59.306;18.090;2023-07-13T14:07:27;2.17;;;0.82;;
19778;SDS011;10049;59.306;18.090;2023-07-13T14:09:57;0.55;;;0.50;;
19778;SDS011;10049;59.306;18.090;2023-07-13T14:12:30;1.65;;;0.52;;
19778;SDS011;10049;59.306;18.090;2023-07-13T14:14:58;0.60;;;0.40;;
19778;SDS011;10049;59.306;18.090;2023-07-13T14:17:26;2.92;;;0.50;;
19778;SDS011;10049;59.306;18.090;2023-07-13T14:19:55;0.43;;;0.40;;
19778;SDS011;10049;59.306;18.090;2023-07-13T14:22:25;1.98;;;0.40;;
19778;SDS011;10049;59.306;18.090;2023-07-13T14:24:53;0.82;;;0.40;;
19778;SDS011;10049;59.306;18.090;2023-07-13T14:27:22;1.20;;;0.50;;
19778;SDS011;10049;59.306;18.090;2023-07-13T14:29:52;1.25;;;0.90;;
19778;SDS011;10049;59.306;18.090;2023-07-13T14:32:22;1.33;;;0.60;;
19778;SDS011;10049;59.306;18.090;2023-07-13T14:34:50;1.15;;;0.50;;
19778;SDS011;10049;59.306;18.090;2023-07-13T14:37:17;2.33;;;0.47;;
19778;SDS011;10049;59.306;18.090;2023-07-13T14:39:46;3.30;;;0.60;;
19778;SDS011;10049;59.306;18.090;2023-07-13T14:42:16;1.75;;;0.50;;
19778;SDS011;10049;59.306;18.090;2023-07-13T14:44:46;2.72;;;0.68;;
19778;SDS011;10049;59.306;18.090;2023-07-13T14:47:16;0.63;;;0.50;;
19778;SDS011;10049;59.306;18.090;2023-07-13T14:49:44;5.13;;;0.60;;
19778;SDS011;10049;59.306;18.090;2023-07-13T14:52:15;1.35;;;0.60;;